Time;durP1;ratioP1;P1;durP2;ratioP2;P2;SDS_P1;SDS_P2;PMS_P1;PMS_P2;Temp;Humidity;BMP_temperature;BMP_pressure;BME280_temperature;BME280_humidity;BME280_pressure;Samples;Min_cycle;Max_cycle;Signal;HPM_P1;HPM_P2
2023/10/29 00:03:14;;;;;;;1.92;1.52;;;14.00;99.90;;;;;;10491177;28;20473;-65
2023/10/29 00:08:15;;;;;;;2.80;1.80;;;14.00;99.90;;;;;;10492772;28;20447;-65
2023/10/29 00:13:15;;;;;;;2.27;1.57;;;14.00;99.90;;;;;;10491668;28;20409;-66
2023/10/29 00:18:17;;;;;;;3.43;1.50;;;14.00;99.90;;;;;;10492189;28;20765;-65
2023/10/29 00:23:18;;;;;;;4.23;1.70;;;14.00;99.90;;;;;;10491019;28;20783;-65
2023/10/29 00:28:18;;;;;;;2.38;1.70;;;14.00;99.90;;;;;;10488634;28;20895;-65
2023/10/29 00:33:19;;;;;;;1.70;1.40;;;14.00;99.90;;;;;;10490184;28;20415;-66
2023/10/29 00:38:20;;;;;;;2.17;1.50;;;14.00;99.90;;;;;;10497479;28;20396;-65
2023/10/29 00:43:21;;;;;;;2.83;1.60;;;12.50;99.90;;;;;;10496763;28;20399;-65
2023/10/29 00:48:22;;;;;;;2.10;1.40;;;14.00;99.90;;;;;;10498842;28;20396;-65
2023/10/29 00:53:24;;;;;;;3.17;1.42;;;14.00;99.90;;;;;;10500007;28;20502;-65
2023/10/29 00:58:25;;;;;;;2.15;1.50;;;14.00;99.90;;;;;;10495710;28;20492;-66
2023/10/29 01:03:26;;;;;;;2.10;1.40;;;14.00;99.90;;;;;;10498516;28;20447;-65
2023/10/29 01:08:26;;;;;;;2.57;1.70;;;14.00;99.90;;;;;;10496902;28;20837;-65
2023/10/29 01:13:27;;;;;;;2.20;1.50;;;14.00;99.90;;;;;;10496983;28;20945;-65
2023/10/29 01:18:27;;;;;;;2.40;1.40;;;14.00;99.90;;;;;;10497464;28;20802;-65
2023/10/29 01:23:30;;;;;;;1.80;1.60;;;14.30;99.90;;;;;;10494225;28;20929;-65
2023/10/29 01:28:31;;;;;;;2.22;1.60;;;14.10;99.90;;;;;;10499368;28;20973;-65
2023/10/29 01:33:32;;;;;;;1.60;1.40;;;14.00;99.90;;;;;;10496814;28;20501;-65
2023/10/29 01:38:33;;;;;;;1.95;1.50;;;14.10;99.90;;;;;;10491582;28;20902;-65
2023/10/29 01:43:34;;;;;;;2.67;1.40;;;14.20;99.90;;;;;;10499044;28;20483;-65
2023/10/29 01:48:34;;;;;;;1.95;1.30;;;14.10;99.90;;;;;;10505621;28;20411;-65
2023/10/29 01:53:35;;;;;;;2.67;1.37;;;14.30;99.90;;;;;;10493363;28;20503;-65
2023/10/29 01:58:35;;;;;;;2.70;1.40;;;14.10;99.90;;;;;;10501357;28;20400;-65
2023/10/29 02:03:36;;;;;;;2.60;1.33;;;14.00;99.90;;;;;;10492032;28;20408;-65
2023/10/29 02:08:37;;;;;;;2.93;1.40;;;14.10;99.90;;;;;;10493722;28;20780;-65
2023/10/29 02:13:37;;;;;;;2.38;1.30;;;14.80;99.90;;;;;;10497494;28;20913;-65
2023/10/29 02:18:38;;;;;;;2.20;1.10;;;14.10;99.90;;;;;;10497481;28;20403;-66
2023/10/29 02:23:38;;;;;;;1.83;1.10;;;14.10;99.90;;;;;;10499331;28;20417;-65
2023/10/29 02:28:39;;;;;;;1.87;1.10;;;14.10;99.90;;;;;;10499557;28;20864;-66
2023/10/29 02:33:40;;;;;;;2.70;1.00;;;14.20;99.90;;;;;;10496806;28;21114;-66
2023/10/29 02:38:42;;;;;;;2.43;1.17;;;14.40;99.90;;;;;;10504928;28;20390;-65
2023/10/29 02:43:43;;;;;;;1.55;1.00;;;14.20;99.90;;;;;;10497927;28;20406;-65
2023/10/29 02:48:44;;;;;;;2.90;1.10;;;14.20;99.90;;;;;;10505393;28;20835;-66
2023/10/29 02:53:45;;;;;;;2.00;1.10;;;14.60;99.90;;;;;;10491727;28;20401;-65
2023/10/29 02:58:46;;;;;;;1.90;1.00;;;14.20;99.90;;;;;;10500201;28;20407;-65
2023/10/29 03:03:46;;;;;;;2.10;0.90;;;14.20;99.90;;;;;;10495026;28;20398;-66
2023/10/29 03:08:47;;;;;;;1.57;1.00;;;14.20;99.90;;;;;;10496439;28;20897;-65
2023/10/29 03:13:48;;;;;;;2.83;1.00;;;14.20;99.90;;;;;;10498789;28;20437;-65
2023/10/29 03:18:49;;;;;;;1.27;0.93;;;14.20;99.90;;;;;;10486356;28;20407;-65
2023/10/29 03:23:49;;;;;;;2.70;1.10;;;14.20;99.90;;;;;;10481164;28;20888;-66
2023/10/29 03:28:50;;;;;;;2.03;1.40;;;14.20;99.90;;;;;;10494287;28;20910;-65
2023/10/29 03:33:51;;;;;;;2.45;1.00;;;14.30;99.90;;;;;;10508488;28;20933;-65
2023/10/29 03:38:51;;;;;;;2.10;1.00;;;14.50;99.90;;;;;;10505504;28;20897;-65
2023/10/29 03:43:52;;;;;;;1.30;0.80;;;14.30;99.90;;;;;;10511103;28;20485;-65
2023/10/29 03:48:53;;;;;;;2.00;0.80;;;14.30;99.90;;;;;;10506392;28;20406;-65
2023/10/29 03:53:54;;;;;;;1.33;0.80;;;14.30;99.90;;;;;;10496367;28;20408;-65
2023/10/29 03:58:55;;;;;;;1.95;0.85;;;14.30;99.90;;;;;;10511418;28;20398;-65
2023/10/29 04:03:56;;;;;;;1.57;0.90;;;14.30;99.90;;;;;;10511965;28;20441;-65
2023/10/29 04:08:56;;;;;;;1.73;0.90;;;14.30;99.90;;;;;;10505247;28;20466;-65
2023/10/29 04:13:57;;;;;;;1.93;0.87;;;14.30;99.90;;;;;;10503947;28;20408;-65
2023/10/29 04:18:57;;;;;;;1.73;0.80;;;14.30;99.90;;;;;;10497123;28;20390;-65
2023/10/29 04:23:58;;;;;;;2.30;0.90;;;14.40;99.90;;;;;;10505860;28;20397;-65
2023/10/29 04:28:59;;;;;;;2.13;0.90;;;14.40;99.90;;;;;;10501912;28;20402;-65
2023/10/29 04:33:59;;;;;;;1.40;0.77;;;14.30;99.90;;;;;;10506638;28;20417;-65
2023/10/29 04:39:00;;;;;;;1.77;0.80;;;14.30;99.90;;;;;;10503908;28;20482;-65
2023/10/29 04:44:01;;;;;;;1.33;0.75;;;14.60;99.90;;;;;;10510115;28;20401;-65
2023/10/29 04:49:01;;;;;;;1.33;0.80;;;14.30;99.90;;;;;;10513130;28;20965;-65
2023/10/29 04:54:02;;;;;;;2.40;0.70;;;14.30;99.90;;;;;;10505237;28;20406;-65
2023/10/29 04:59:02;;;;;;;2.10;1.00;;;14.30;99.90;;;;;;10508571;28;20907;-65
2023/10/29 05:04:03;;;;;;;2.23;0.83;;;14.30;99.90;;;;;;10514671;28;20485;-65
2023/10/29 05:09:04;;;;;;;1.30;0.80;;;14.30;99.90;;;;;;10511094;28;20397;-66
2023/10/29 05:14:04;;;;;;;2.10;0.80;;;14.30;99.90;;;;;;10505710;28;20406;-65
2023/10/29 05:19:05;;;;;;;2.17;0.80;;;14.30;99.90;;;;;;10500767;28;20425;-65
2023/10/29 05:24:07;;;;;;;1.92;0.80;;;14.30;99.90;;;;;;10485241;28;20399;-65
2023/10/29 05:29:09;;;;;;;1.27;0.75;;;14.30;99.90;;;;;;10497277;28;20400;-65
2023/10/29 05:34:09;;;;;;;2.10;0.80;;;13.30;99.90;;;;;;10495712;28;20414;-65
2023/10/29 05:39:10;;;;;;;0.90;0.70;;;14.40;99.90;;;;;;10495957;28;20776;-65
2023/10/29 05:44:10;;;;;;;1.27;0.90;;;14.30;99.90;;;;;;10490597;28;20411;-65
2023/10/29 05:49:11;;;;;;;1.43;0.70;;;14.40;99.90;;;;;;10495332;28;20530;-66
2023/10/29 05:54:12;;;;;;;2.90;1.00;;;14.30;99.90;;;;;;10493537;28;20878;-65
2023/10/29 05:59:13;;;;;;;2.30;0.80;;;14.40;99.90;;;;;;10493548;28;20896;-66
2023/10/29 06:04:13;;;;;;;2.45;0.77;;;14.40;99.90;;;;;;10476771;28;20785;-65
2023/10/29 06:09:14;;;;;;;1.10;0.77;;;14.40;99.90;;;;;;10486483;28;20402;-65
2023/10/29 06:14:14;;;;;;;1.90;0.70;;;14.40;99.90;;;;;;10492027;28;20766;-66
2023/10/29 06:19:15;;;;;;;2.03;0.70;;;14.40;99.90;;;;;;10484419;28;20398;-67
2023/10/29 06:24:15;;;;;;;1.37;0.77;;;14.40;99.90;;;;;;10491619;28;20765;-66
2023/10/29 06:29:16;;;;;;;1.33;0.65;;;14.40;99.90;;;;;;10492713;28;20465;-65
2023/10/29 06:34:16;;;;;;;1.67;0.60;;;14.40;99.90;;;;;;10495271;28;20863;-66
2023/10/29 06:39:17;;;;;;;1.57;1.00;;;14.50;99.90;;;;;;10499419;28;20406;-66
2023/10/29 06:44:18;;;;;;;1.73;0.70;;;14.50;99.90;;;;;;10489994;28;20408;-66
2023/10/29 06:49:18;;;;;;;4.35;0.90;;;14.50;99.90;;;;;;10501055;28;20413;-66
2023/10/29 06:54:19;;;;;;;2.13;0.80;;;14.50;99.90;;;;;;10497684;28;20402;-66
2023/10/29 06:59:19;;;;;;;1.20;0.60;;;14.40;99.90;;;;;;10490928;28;20402;-66
2023/10/29 07:04:20;;;;;;;1.93;0.90;;;14.40;99.90;;;;;;10499791;28;20412;-66
2023/10/29 07:09:20;;;;;;;2.53;0.88;;;14.50;99.90;;;;;;10506288;28;20877;-66
2023/10/29 07:14:21;;;;;;;2.17;0.77;;;14.50;99.90;;;;;;10501791;28;20427;-66
2023/10/29 07:19:21;;;;;;;1.50;0.80;;;14.50;99.90;;;;;;10501368;28;20433;-66
2023/10/29 07:24:22;;;;;;;1.55;0.80;;;14.50;99.90;;;;;;10501502;28;20447;-66
2023/10/29 07:29:23;;;;;;;2.10;0.63;;;14.50;99.90;;;;;;10512627;28;20485;-66
2023/10/29 07:34:24;;;;;;;1.98;0.80;;;14.50;99.90;;;;;;10513836;28;20405;-66
2023/10/29 07:39:24;;;;;;;2.10;0.80;;;14.50;99.90;;;;;;10493755;28;20414;-66
2023/10/29 07:44:25;;;;;;;2.33;0.77;;;14.50;99.90;;;;;;10503827;28;20446;-66
2023/10/29 07:49:25;;;;;;;2.83;0.90;;;14.50;99.90;;;;;;10510309;28;20816;-66
2023/10/29 07:54:27;;;;;;;1.27;0.70;;;14.60;99.90;;;;;;10500775;28;20776;-66
2023/10/29 07:59:28;;;;;;;2.67;0.80;;;14.60;99.90;;;;;;10503075;28;20840;-66
2023/10/29 08:04:29;;;;;;;1.63;0.83;;;14.60;99.90;;;;;;10511977;28;20398;-66
2023/10/29 08:09:29;;;;;;;2.03;0.80;;;14.60;99.90;;;;;;10508185;28;20481;-66
2023/10/29 08:14:30;;;;;;;6.20;1.10;;;14.70;99.90;;;;;;10508035;28;20437;-66
2023/10/29 08:19:30;;;;;;;1.90;0.80;;;15.00;99.90;;;;;;10494467;28;20405;-66
2023/10/29 08:24:31;;;;;;;2.80;1.00;;;14.90;99.90;;;;;;10504177;28;20873;-66
2023/10/29 08:29:35;;;;;;;2.40;0.87;;;15.00;99.90;;;;;;10503675;28;20418;-66
2023/10/29 08:34:36;;;;;;;2.70;1.13;;;15.00;99.90;;;;;;10512379;28;20405;-66
2023/10/29 08:39:37;;;;;;;2.65;0.88;;;15.10;99.90;;;;;;10518061;28;20457;-67
2023/10/29 08:44:38;;;;;;;1.73;0.90;;;15.20;99.80;;;;;;10505800;28;20406;-66
2023/10/29 08:49:38;;;;;;;1.50;0.80;;;15.20;99.80;;;;;;10507053;28;20411;-66
2023/10/29 08:54:39;;;;;;;2.83;0.80;;;15.30;99.70;;;;;;10510424;28;20418;-66
2023/10/29 08:59:40;;;;;;;1.52;0.60;;;15.40;99.60;;;;;;10510288;28;20455;-66
2023/10/29 09:04:41;;;;;;;3.20;1.00;;;15.60;99.50;;;;;;10501528;28;20390;-66
2023/10/29 09:09:41;;;;;;;2.92;0.70;;;15.50;99.40;;;;;;10497350;28;20433;-66
2023/10/29 09:14:42;;;;;;;3.17;0.90;;;15.40;99.30;;;;;;10500769;28;20485;-66
2023/10/29 09:19:43;;;;;;;2.90;0.90;;;15.50;99.30;;;;;;10491844;28;20480;-66
2023/10/29 09:24:43;;;;;;;3.88;0.80;;;15.40;99.30;;;;;;10504587;28;20493;-65
2023/10/29 09:29:44;;;;;;;2.50;0.83;;;15.90;99.40;;;;;;10505173;28;20933;-65
2023/10/29 09:34:44;;;;;;;5.53;1.00;;;15.80;99.40;;;;;;10493984;28;20906;-65
2023/10/29 09:39:45;;;;;;;2.13;1.00;;;15.40;99.30;;;;;;10493442;28;20416;-65
2023/10/29 09:44:49;;;;;;;2.90;1.07;;;15.40;99.30;;;;;;10497137;28;20425;-65
2023/10/29 09:49:51;;;;;;;3.35;1.00;;;15.40;99.30;;;;;;10492334;28;21190;-65
2023/10/29 09:54:53;;;;;;;2.30;1.15;;;15.40;99.30;;;;;;10493627;28;20405;-65
2023/10/29 09:59:54;;;;;;;2.78;1.15;;;15.40;99.30;;;;;;10486762;28;20465;-66
2023/10/29 10:04:55;;;;;;;3.17;1.20;;;15.40;99.30;;;;;;10487527;28;20467;-65
2023/10/29 10:09:57;;;;;;;3.13;1.23;;;15.40;99.20;;;;;;10490619;28;20398;-65
2023/10/29 10:15:04;;;;;;;4.72;1.23;;;15.60;99.20;;;;;;10486421;28;20443;-65
2023/10/29 10:20:07;;;;;;;4.68;1.15;;;15.50;99.10;;;;;;10490471;28;20750;-65
2023/10/29 10:25:19;;;;;;;5.07;1.40;;;15.40;99.10;;;;;;10494833;28;20396;-65
2023/10/29 10:30:33;;;;;;;5.07;1.57;;;15.40;99.10;;;;;;10488184;28;21046;-65
2023/10/29 10:35:46;;;;;;;4.47;1.20;;;15.40;99.00;;;;;;10489386;28;21033;-65
2023/10/29 10:40:55;;;;;;;5.27;1.60;;;15.30;98.80;;;;;;10493738;28;20804;-66
2023/10/29 10:45:58;;;;;;;4.97;1.45;;;15.30;98.80;;;;;;10496552;28;20389;-66
2023/10/29 10:51:01;;;;;;;3.10;1.23;;;15.40;99.00;;;;;;10493542;28;20923;-67
2023/10/29 10:56:02;;;;;;;1.92;1.27;;;15.40;99.00;;;;;;10493033;28;20391;-66
2023/10/29 11:01:03;;;;;;;2.97;1.23;;;15.40;98.90;;;;;;10497611;28;20505;-65
2023/10/29 11:06:05;;;;;;;5.80;1.42;;;15.40;99.00;;;;;;10495675;28;20394;-65
2023/10/29 11:11:07;;;;;;;4.15;1.58;;;15.40;99.10;;;;;;10485667;28;20764;-66
2023/10/29 11:16:24;;;;;;;3.83;1.52;;;15.40;98.80;;;;;;10488870;28;20408;-66
2023/10/29 11:21:32;;;;;;;6.50;1.50;;;15.50;98.80;;;;;;10487307;28;20419;-66
2023/10/29 11:26:33;;;;;;;5.27;1.43;;;15.50;99.00;;;;;;10498227;28;20400;-65
2023/10/29 11:31:34;;;;;;;5.87;1.40;;;15.50;98.70;;;;;;10500013;28;21032;-66
2023/10/29 11:36:37;;;;;;;4.35;1.35;;;15.50;98.60;;;;;;10499014;28;20475;-66
2023/10/29 11:41:39;;;;;;;5.55;1.42;;;15.60;98.40;;;;;;10500728;28;20410;-65
2023/10/29 11:46:55;;;;;;;3.25;1.13;;;15.50;98.40;;;;;;10495547;28;20937;-70
2023/10/29 11:52:03;;;;;;;6.53;2.00;;;15.40;98.30;;;;;;10493866;28;20796;-67
2023/10/29 11:57:06;;;;;;;4.68;1.52;;;15.40;98.10;;;;;;10493064;28;20488;-68
2023/10/29 12:02:07;;;;;;;5.53;1.60;;;15.40;98.10;;;;;;10506791;28;20805;-67
2023/10/29 12:07:07;;;;;;;5.35;1.80;;;15.50;98.10;;;;;;10493760;28;20412;-66
2023/10/29 12:12:09;;;;;;;7.43;1.40;;;15.40;98.20;;;;;;10499322;28;20521;-67
2023/10/29 12:17:10;;;;;;;3.17;1.40;;;15.50;98.30;;;;;;10505957;28;20392;-67
2023/10/29 12:22:18;;;;;;;4.57;1.50;;;15.50;98.20;;;;;;10496010;28;20444;-66
2023/10/29 12:27:21;;;;;;;4.50;1.20;;;15.50;98.30;;;;;;10501170;28;20924;-66
2023/10/29 12:32:23;;;;;;;4.60;1.53;;;15.50;98.40;;;;;;10509426;28;20434;-67
2023/10/29 12:37:25;;;;;;;4.17;1.10;;;15.40;98.30;;;;;;10503892;28;20765;-67
2023/10/29 12:42:51;;;;;;;6.35;1.20;;;15.40;98.40;;;;;;10508102;28;20507;-67
2023/10/29 12:48:14;;;;;;;5.88;1.40;;;15.40;98.20;;;;;;10503499;28;20463;-67
2023/10/29 12:53:25;;;;;;;6.68;1.58;;;15.40;98.30;;;;;;10492422;28;20780;-67
2023/10/29 12:58:28;;;;;;;3.77;1.27;;;15.40;98.20;;;;;;10500178;28;20988;-66
2023/10/29 13:03:28;;;;;;;3.85;1.10;;;15.80;98.20;;;;;;10489962;28;20445;-66
2023/10/29 13:08:29;;;;;;;4.37;1.10;;;15.40;98.20;;;;;;10495211;28;20978;-66
2023/10/29 13:13:30;;;;;;;6.20;1.47;;;15.40;97.90;;;;;;10494198;28;20522;-67
2023/10/29 13:18:30;;;;;;;2.90;1.00;;;15.40;98.30;;;;;;10500857;28;20390;-67
2023/10/29 13:23:31;;;;;;;4.10;1.75;;;15.40;98.20;;;;;;10476699;28;20454;-66
2023/10/29 13:28:31;;;;;;;4.70;1.10;;;15.40;98.40;;;;;;10511699;28;20509;-66
2023/10/29 13:33:32;;;;;;;4.10;1.03;;;15.40;98.30;;;;;;10503207;28;20404;-67
2023/10/29 13:38:34;;;;;;;3.45;1.08;;;15.40;97.90;;;;;;10489720;28;20789;-67
2023/10/29 13:43:34;;;;;;;3.55;1.10;;;15.40;97.90;;;;;;10498928;28;20405;-66
2023/10/29 13:48:35;;;;;;;4.90;1.27;;;15.50;98.00;;;;;;10500344;28;20410;-66
2023/10/29 13:53:36;;;;;;;4.23;1.13;;;15.40;98.00;;;;;;10505723;28;20452;-66
2023/10/29 13:58:37;;;;;;;5.47;1.30;;;15.70;97.90;;;;;;10494128;28;20512;-66
2023/10/29 14:03:37;;;;;;;5.07;1.17;;;15.50;98.10;;;;;;10500931;28;20417;-69
2023/10/29 14:08:38;;;;;;;7.22;1.20;;;15.40;98.00;;;;;;10482774;28;20417;-67
2023/10/29 14:13:38;;;;;;;7.40;1.30;;;15.70;98.20;;;;;;10495979;28;20406;-66
2023/10/29 14:18:39;;;;;;;5.60;1.60;;;15.50;98.40;;;;;;10483110;28;20400;-66
2023/10/29 14:23:40;;;;;;;5.10;1.27;;;15.40;98.30;;;;;;10498696;28;21003;-66
2023/10/29 14:28:40;;;;;;;5.45;1.33;;;15.40;98.40;;;;;;10495558;28;20463;-66
2023/10/29 14:33:41;;;;;;;4.90;1.43;;;15.40;98.40;;;;;;10500156;28;20515;-66
2023/10/29 14:38:43;;;;;;;6.20;1.40;;;15.40;98.10;;;;;;10490047;28;20488;-67
2023/10/29 14:43:44;;;;;;;6.53;1.27;;;15.30;98.20;;;;;;10488088;28;20918;-65
2023/10/29 14:48:45;;;;;;;5.90;1.30;;;15.30;98.20;;;;;;10495472;28;20403;-64
2023/10/29 14:53:45;;;;;;;4.97;1.33;;;15.60;98.40;;;;;;10503870;28;20437;-65
2023/10/29 14:58:46;;;;;;;6.60;1.40;;;15.30;98.30;;;;;;10501222;28;20767;-64
2023/10/29 15:03:47;;;;;;;4.70;1.30;;;15.30;98.30;;;;;;10502847;28;20956;-65
2023/10/29 15:08:48;;;;;;;6.93;1.83;;;15.30;98.20;;;;;;10505286;28;21252;-64
2023/10/29 15:13:49;;;;;;;5.03;1.65;;;15.30;98.30;;;;;;10495079;28;20421;-65
2023/10/29 15:18:50;;;;;;;4.97;1.33;;;15.30;98.30;;;;;;10496135;28;20746;-65
2023/10/29 15:23:50;;;;;;;5.07;1.73;;;15.30;98.20;;;;;;10469211;28;20810;-65
2023/10/29 15:28:52;;;;;;;4.63;1.20;;;15.30;98.20;;;;;;10509090;28;20463;-65
2023/10/29 15:33:52;;;;;;;3.28;0.90;;;15.30;98.20;;;;;;10513572;28;20410;-65
2023/10/29 15:38:53;;;;;;;5.67;1.60;;;15.30;98.20;;;;;;10508861;28;20455;-65
2023/10/29 15:43:55;;;;;;;4.40;1.27;;;15.30;98.20;;;;;;10498695;28;20399;-65
2023/10/29 15:48:56;;;;;;;3.95;1.20;;;15.30;98.40;;;;;;10494351;28;20798;-65
2023/10/29 15:53:56;;;;;;;4.75;1.30;;;15.30;98.40;;;;;;10496732;28;20446;-64
2023/10/29 15:58:57;;;;;;;4.80;1.70;;;15.20;98.40;;;;;;10494943;28;20846;-64
2023/10/29 16:04:00;;;;;;;5.87;1.43;;;15.30;98.40;;;;;;10496266;28;20400;-65
2023/10/29 16:09:00;;;;;;;4.80;1.50;;;15.60;98.60;;;;;;10496625;28;20404;-64
2023/10/29 16:14:01;;;;;;;4.55;1.38;;;15.20;98.60;;;;;;10501222;28;20412;-64
2023/10/29 16:19:03;;;;;;;4.73;1.30;;;15.20;98.60;;;;;;10489406;28;20478;-65
2023/10/29 16:24:04;;;;;;;4.27;1.40;;;15.20;98.70;;;;;;10494956;28;20844;-65
2023/10/29 16:29:04;;;;;;;3.25;1.30;;;15.20;98.80;;;;;;10489218;28;20403;-65
2023/10/29 16:34:05;;;;;;;3.97;1.10;;;15.60;98.80;;;;;;10501414;28;20413;-65
2023/10/29 16:39:05;;;;;;;4.17;1.10;;;15.10;98.70;;;;;;10503830;28;20406;-65
2023/10/29 16:44:06;;;;;;;3.40;1.05;;;15.10;98.70;;;;;;10504137;28;20439;-65
2023/10/29 16:49:06;;;;;;;5.57;1.20;;;15.10;98.80;;;;;;10501067;28;20496;-64
2023/10/29 16:54:07;;;;;;;3.10;0.97;;;15.60;98.90;;;;;;10495408;28;20489;-64
2023/10/29 16:59:08;;;;;;;5.00;1.23;;;15.10;98.90;;;;;;10496452;28;20808;-66
2023/10/29 17:04:09;;;;;;;3.03;0.95;;;15.10;98.80;;;;;;10492028;28;20392;-67
2023/10/29 17:09:09;;;;;;;4.73;1.03;;;15.00;98.70;;;;;;10489735;28;20512;-65
2023/10/29 17:14:14;;;;;;;3.93;1.33;;;15.00;98.70;;;;;;10499481;28;20404;-66
2023/10/29 17:19:15;;;;;;;5.13;1.10;;;15.00;98.70;;;;;;10489696;28;20398;-67
2023/10/29 17:24:16;;;;;;;3.28;1.10;;;14.90;98.70;;;;;;10491874;28;20460;-66
2023/10/29 17:29:16;;;;;;;3.97;1.27;;;15.30;99.00;;;;;;10493802;28;20410;-65
2023/10/29 17:34:17;;;;;;;3.83;1.00;;;14.90;98.90;;;;;;10496714;28;20420;-65
2023/10/29 17:39:19;;;;;;;4.00;1.05;;;14.90;98.90;;;;;;10502982;28;20397;-65
2023/10/29 17:44:20;;;;;;;4.43;1.08;;;14.90;99.00;;;;;;10490871;28;20405;-66
2023/10/29 17:49:21;;;;;;;3.93;1.20;;;14.90;99.10;;;;;;10493187;28;20508;-65
2023/10/29 17:54:23;;;;;;;2.65;1.00;;;14.90;99.10;;;;;;10502486;28;20504;-65
2023/10/29 17:59:25;;;;;;;2.63;1.13;;;14.90;99.10;;;;;;10494075;28;20409;-65
2023/10/29 18:04:26;;;;;;;3.30;1.10;;;14.90;99.10;;;;;;10498264;28;20446;-65
2023/10/29 18:09:26;;;;;;;2.70;1.13;;;14.90;99.10;;;;;;10493283;28;20406;-64
2023/10/29 18:14:27;;;;;;;3.57;1.10;;;14.90;99.30;;;;;;10496420;28;20413;-65
2023/10/29 18:19:28;;;;;;;2.97;1.30;;;14.90;99.40;;;;;;10488474;28;20405;-64
2023/10/29 18:24:28;;;;;;;3.53;1.40;;;14.90;99.50;;;;;;10494269;28;20403;-65
2023/10/29 18:29:29;;;;;;;3.30;1.10;;;14.80;99.90;;;;;;10499267;28;20949;-64
2023/10/29 18:34:30;;;;;;;3.28;1.20;;;14.90;99.60;;;;;;10506686;28;20921;-65
2023/10/29 18:39:31;;;;;;;3.70;0.90;;;14.80;99.60;;;;;;10496092;28;20971;-64
2023/10/29 18:44:31;;;;;;;2.20;1.00;;;14.80;99.60;;;;;;10501680;28;20386;-65
2023/10/29 18:49:32;;;;;;;2.45;1.20;;;14.80;99.70;;;;;;10503074;28;20405;-64
2023/10/29 18:54:33;;;;;;;3.30;1.00;;;14.80;99.70;;;;;;10497205;28;20443;-64
2023/10/29 18:59:35;;;;;;;2.80;1.03;;;14.80;99.70;;;;;;10466200;28;20391;-65
2023/10/29 19:04:36;;;;;;;3.65;1.27;;;14.80;99.70;;;;;;10502975;28;20407;-64
2023/10/29 19:09:36;;;;;;;3.13;1.02;;;14.80;99.70;;;;;;10487058;28;20492;-64
2023/10/29 19:14:41;;;;;;;2.67;1.00;;;15.00;99.80;;;;;;10497329;28;20413;-65
2023/10/29 19:19:42;;;;;;;2.17;0.90;;;15.10;99.90;;;;;;10499758;28;20972;-65
2023/10/29 19:24:43;;;;;;;2.27;1.00;;;14.80;99.90;;;;;;10496076;28;20398;-65
2023/10/29 19:29:43;;;;;;;2.05;0.95;;;14.80;99.80;;;;;;10493981;28;20755;-64
2023/10/29 19:34:44;;;;;;;3.53;1.30;;;14.80;99.80;;;;;;10495451;28;20416;-65
2023/10/29 19:39:45;;;;;;;2.40;0.90;;;14.80;99.80;;;;;;10484733;28;20409;-65
2023/10/29 19:44:45;;;;;;;1.83;0.90;;;14.70;99.80;;;;;;10506879;28;20402;-64
2023/10/29 19:49:46;;;;;;;1.88;0.70;;;14.70;99.80;;;;;;10488645;28;20409;-65
2023/10/29 19:54:47;;;;;;;1.40;0.80;;;14.70;99.70;;;;;;10489850;28;20406;-64
2023/10/29 19:59:48;;;;;;;2.92;1.00;;;14.80;99.70;;;;;;10495109;28;20430;-65
2023/10/29 20:04:52;;;;;;;2.10;0.70;;;14.70;99.70;;;;;;10483159;28;20431;-64
2023/10/29 20:09:53;;;;;;;1.33;0.70;;;14.70;99.70;;;;;;10488288;28;20413;-64
2023/10/29 20:14:53;;;;;;;1.38;0.80;;;14.70;99.60;;;;;;10479552;28;20413;-64
2023/10/29 20:19:54;;;;;;;1.60;0.90;;;14.70;99.60;;;;;;10486030;28;20404;-64
2023/10/29 20:24:54;;;;;;;2.67;0.90;;;14.60;99.60;;;;;;10491725;28;20462;-64
2023/10/29 20:29:56;;;;;;;1.35;0.70;;;14.60;99.60;;;;;;10490821;28;20497;-70
2023/10/29 20:34:57;;;;;;;2.05;0.90;;;14.60;99.60;;;;;;10484660;28;20445;-64
2023/10/29 20:39:58;;;;;;;1.93;0.90;;;14.60;99.50;;;;;;10495643;28;20451;-65
2023/10/29 20:44:58;;;;;;;2.15;0.80;;;14.70;99.60;;;;;;10490507;28;20798;-65
2023/10/29 20:49:59;;;;;;;1.97;0.80;;;14.60;99.50;;;;;;10492870;28;20932;-65
2023/10/29 20:54:59;;;;;;;1.97;0.60;;;14.60;99.50;;;;;;10495110;28;20748;-64
2023/10/29 21:00:02;;;;;;;2.83;0.83;;;14.60;99.40;;;;;;10497476;28;20481;-64
2023/10/29 21:05:04;;;;;;;2.80;1.10;;;14.60;99.50;;;;;;10490807;28;20458;-65
2023/10/29 21:10:05;;;;;;;3.10;0.70;;;14.50;99.40;;;;;;10489889;28;20410;-65
2023/10/29 21:15:06;;;;;;;1.93;0.70;;;14.50;99.40;;;;;;10482382;28;20467;-64
2023/10/29 21:20:07;;;;;;;2.00;0.65;;;14.50;99.30;;;;;;10490989;28;20487;-65
2023/10/29 21:25:08;;;;;;;3.53;0.90;;;14.50;99.40;;;;;;10492166;28;20823;-65
2023/10/29 21:30:10;;;;;;;2.53;0.80;;;14.50;99.30;;;;;;10491926;28;20497;-65
2023/10/29 21:35:11;;;;;;;2.55;0.88;;;14.50;99.30;;;;;;10492913;28;20414;-65
2023/10/29 21:40:12;;;;;;;2.00;0.70;;;14.50;99.30;;;;;;10495718;28;20402;-64
2023/10/29 21:45:13;;;;;;;2.65;1.00;;;14.50;99.40;;;;;;10493718;28;20797;-65
2023/10/29 21:50:15;;;;;;;1.50;0.80;;;14.50;99.30;;;;;;10493014;28;20489;-64
2023/10/29 21:55:17;;;;;;;2.20;0.80;;;14.90;99.40;;;;;;10490491;28;20469;-64
2023/10/29 22:00:17;;;;;;;3.70;0.77;;;14.40;99.30;;;;;;10488384;28;20410;-65
2023/10/29 22:05:18;;;;;;;2.47;0.95;;;14.40;99.30;;;;;;10487757;28;20579;-64
2023/10/29 22:10:19;;;;;;;2.60;0.77;;;14.40;99.30;;;;;;10489367;28;20835;-65
2023/10/29 22:15:19;;;;;;;2.75;0.80;;;14.40;99.30;;;;;;10496896;28;20409;-64
2023/10/29 22:20:20;;;;;;;2.47;0.80;;;14.40;99.30;;;;;;10494464;28;20417;-65
2023/10/29 22:25:22;;;;;;;3.95;1.00;;;14.40;99.30;;;;;;10492726;28;20410;-63
2023/10/29 22:30:22;;;;;;;3.55;0.90;;;14.40;99.30;;;;;;10488631;28;20756;-63
2023/10/29 22:35:23;;;;;;;2.80;0.97;;;14.40;99.30;;;;;;10486183;28;20414;-64
2023/10/29 22:40:24;;;;;;;2.45;0.70;;;14.40;99.30;;;;;;10494620;28;20402;-64
2023/10/29 22:45:24;;;;;;;4.03;0.90;;;14.40;99.30;;;;;;10492021;28;20399;-64
2023/10/29 22:50:25;;;;;;;5.73;1.40;;;14.40;99.30;;;;;;10497290;28;20412;-64
2023/10/29 22:55:26;;;;;;;1.90;0.70;;;14.40;99.30;;;;;;10493780;28;20493;-64
2023/10/29 23:00:26;;;;;;;3.27;1.00;;;14.40;99.30;;;;;;10500529;28;20872;-64
2023/10/29 23:05:30;;;;;;;1.70;0.70;;;14.30;99.30;;;;;;10505025;28;20489;-63
2023/10/29 23:10:31;;;;;;;2.60;0.80;;;14.40;99.30;;;;;;10496120;28;20453;-64
2023/10/29 23:15:32;;;;;;;2.85;0.95;;;14.80;99.40;;;;;;10488840;28;20416;-65
2023/10/29 23:20:32;;;;;;;2.87;1.03;;;14.30;99.30;;;;;;10498577;28;20401;-64
2023/10/29 23:25:33;;;;;;;2.30;0.98;;;14.30;99.30;;;;;;10496410;28;20844;-64
2023/10/29 23:30:33;;;;;;;3.43;1.10;;;14.30;99.30;;;;;;10494968;28;20406;-64
2023/10/29 23:35:34;;;;;;;2.50;0.80;;;14.30;99.30;;;;;;10501805;28;20427;-64
2023/10/29 23:40:35;;;;;;;2.35;0.90;;;14.30;99.30;;;;;;10501776;28;20492;-64
2023/10/29 23:45:35;;;;;;;3.07;1.00;;;14.20;99.20;;;;;;10500932;28;20734;-64
2023/10/29 23:50:36;;;;;;;1.80;0.80;;;14.50;99.30;;;;;;10511439;28;20420;-64
2023/10/29 23:55:37;;;;;;;1.60;0.80;;;14.30;99.30;;;;;;10502767;28;20417;-64
